Terminal Aerodrome Forecast
Issued by NWS

Home | Current Version | Previous Version | Text Only | Print | Product List | Glossary On
Versions: 1 2 3 4 5 6 7 8 9 10 11 12 13 14 15 16 17 18
000
FTUS46 KSTO 232300
TAFSCK
TAF
KSCK 232324Z 2400/2424 31006KT P6SM BKN150
     FM240400 VRB04KT 5SM BR BKN150
      TEMPO 2412/2416 2SM BR FEW001
     FM242000 31007KT P6SM SCT200=

USA.gov is the U.S. government's official web portal to all federal, state and local government web resources and services.